sensor_id;sensor_type;location;lat;lon;timestamp;temperature;humidity
10129;DHT22;5104;50.720;7.044;2023-03-05T00:00:10;5.70;1.00
10129;DHT22;5104;50.720;7.044;2023-03-05T00:02:38;5.60;1.00
10129;DHT22;5104;50.720;7.044;2023-03-05T00:05:05;5.60;1.00
10129;DHT22;5104;50.720;7.044;2023-03-05T00:07:32;5.60;1.00
10129;DHT22;5104;50.720;7.044;2023-03-05T00:09:59;5.50;1.00
10129;DHT22;5104;50.720;7.044;2023-03-05T00:12:27;5.50;1.00
10129;DHT22;5104;50.720;7.044;2023-03-05T00:14:55;5.50;1.00
10129;DHT22;5104;50.720;7.044;2023-03-05T00:17:22;5.50;1.00
10129;DHT22;5104;50.720;7.044;2023-03-05T00:19:49;5.50;1.00
10129;DHT22;5104;50.720;7.044;2023-03-05T00:22:16;5.50;1.00
10129;DHT22;5104;50.720;7.044;2023-03-05T00:24:43;5.50;1.00
10129;DHT22;5104;50.720;7.044;2023-03-05T00:27:09;5.50;1.00
10129;DHT22;5104;50.720;7.044;2023-03-05T00:29:36;5.40;1.00
10129;DHT22;5104;50.720;7.044;2023-03-05T00:32:05;5.40;1.00
10129;DHT22;5104;50.720;7.044;2023-03-05T00:34:32;5.40;1.00
10129;DHT22;5104;50.720;7.044;2023-03-05T00:37:00;5.40;1.00
10129;DHT22;5104;50.720;7.044;2023-03-05T00:39:27;5.40;1.00
10129;DHT22;5104;50.720;7.044;2023-03-05T00:41:54;5.30;1.00
10129;DHT22;5104;50.720;7.044;2023-03-05T00:44:21;5.30;1.00
10129;DHT22;5104;50.720;7.044;2023-03-05T00:46:48;5.30;1.00
10129;DHT22;5104;50.720;7.044;2023-03-05T00:49:17;5.30;1.00
10129;DHT22;5104;50.720;7.044;2023-03-05T00:51:43;5.30;1.00
10129;DHT22;5104;50.720;7.044;2023-03-05T00:54:10;5.30;1.00
10129;DHT22;5104;50.720;7.044;2023-03-05T00:56:37;5.30;1.00
10129;DHT22;5104;50.720;7.044;2023-03-05T00:59:04;5.30;1.00
10129;DHT22;5104;50.720;7.044;2023-03-05T01:01:31;5.30;1.00
10129;DHT22;5104;50.720;7.044;2023-03-05T01:03:58;5.30;1.00
10129;DHT22;5104;50.720;7.044;2023-03-05T01:06:27;5.30;1.00
10129;DHT22;5104;50.720;7.044;2023-03-05T01:08:55;5.30;1.00
10129;DHT22;5104;50.720;7.044;2023-03-05T01:11:22;5.20;1.00
10129;DHT22;5104;50.720;7.044;2023-03-05T01:13:49;5.20;1.00
10129;DHT22;5104;50.720;7.044;2023-03-05T01:16:15;5.20;1.00
10129;DHT22;5104;50.720;7.044;2023-03-05T01:18:42;5.20;1.00
10129;DHT22;5104;50.720;7.044;2023-03-05T01:21:09;5.20;1.00
10129;DHT22;5104;50.720;7.044;2023-03-05T01:23:37;5.20;1.00
10129;DHT22;5104;50.720;7.044;2023-03-05T01:26:05;5.20;1.00
10129;DHT22;5104;50.720;7.044;2023-03-05T01:28:33;5.20;1.00
10129;DHT22;5104;50.720;7.044;2023-03-05T01:31:00;5.20;1.00
10129;DHT22;5104;50.720;7.044;2023-03-05T01:33:28;5.20;1.00
10129;DHT22;5104;50.720;7.044;2023-03-05T01:35:54;5.10;1.00
10129;DHT22;5104;50.720;7.044;2023-03-05T01:38:21;5.10;1.00
10129;DHT22;5104;50.720;7.044;2023-03-05T01:40:50;5.10;1.00
10129;DHT22;5104;50.720;7.044;2023-03-05T01:43:25;5.10;1.00
10129;DHT22;5104;50.720;7.044;2023-03-05T01:46:20;5.10;1.00
10129;DHT22;5104;50.720;7.044;2023-03-05T01:48:51;5.10;1.00
10129;DHT22;5104;50.720;7.044;2023-03-05T01:51:22;5.10;1.00
10129;DHT22;5104;50.720;7.044;2023-03-05T01:53:52;5.10;1.00
10129;DHT22;5104;50.720;7.044;2023-03-05T01:56:20;5.10;1.00
10129;DHT22;5104;50.720;7.044;2023-03-05T01:58:48;5.20;1.00
10129;DHT22;5104;50.720;7.044;2023-03-05T02:01:15;5.20;1.00
10129;DHT22;5104;50.720;7.044;2023-03-05T02:03:42;5.20;1.00
10129;DHT22;5104;50.720;7.044;2023-03-05T02:06:09;5.10;1.00
10129;DHT22;5104;50.720;7.044;2023-03-05T02:08:36;5.10;1.00
10129;DHT22;5104;50.720;7.044;2023-03-05T02:11:03;5.10;1.00
10129;DHT22;5104;50.720;7.044;2023-03-05T02:13:33;5.10;1.00
10129;DHT22;5104;50.720;7.044;2023-03-05T02:16:03;5.10;1.00
10129;DHT22;5104;50.720;7.044;2023-03-05T02:18:30;5.10;1.00
10129;DHT22;5104;50.720;7.044;2023-03-05T02:21:02;5.10;1.00
10129;DHT22;5104;50.720;7.044;2023-03-05T02:23:31;5.10;1.00
10129;DHT22;5104;50.720;7.044;2023-03-05T02:25:58;5.10;1.00
10129;DHT22;5104;50.720;7.044;2023-03-05T02:28:29;5.00;1.00
10129;DHT22;5104;50.720;7.044;2023-03-05T02:30:57;5.10;1.00
10129;DHT22;5104;50.720;7.044;2023-03-05T02:33:24;5.10;1.00
10129;DHT22;5104;50.720;7.044;2023-03-05T02:35:51;5.10;1.00
10129;DHT22;5104;50.720;7.044;2023-03-05T02:38:20;5.10;1.00
10129;DHT22;5104;50.720;7.044;2023-03-05T02:40:47;5.10;1.00
10129;DHT22;5104;50.720;7.044;2023-03-05T02:43:14;5.10;1.00
10129;DHT22;5104;50.720;7.044;2023-03-05T02:45:40;5.10;1.00
10129;DHT22;5104;50.720;7.044;2023-03-05T02:48:07;5.10;1.00
10129;DHT22;5104;50.720;7.044;2023-03-05T02:50:34;5.00;1.00
10129;DHT22;5104;50.720;7.044;2023-03-05T02:53:04;5.00;1.00
10129;DHT22;5104;50.720;7.044;2023-03-05T02:55:32;5.00;1.00
10129;DHT22;5104;50.720;7.044;2023-03-05T02:57:59;5.00;1.00
10129;DHT22;5104;50.720;7.044;2023-03-05T03:00:26;5.00;1.00
10129;DHT22;5104;50.720;7.044;2023-03-05T03:02:53;5.00;1.00
10129;DHT22;5104;50.720;7.044;2023-03-05T03:05:20;5.00;99.90
10129;DHT22;5104;50.720;7.044;2023-03-05T03:07:47;5.00;99.90
10129;DHT22;5104;50.720;7.044;2023-03-05T03:10:15;5.00;99.90
10129;DHT22;5104;50.720;7.044;2023-03-05T03:12:44;5.00;99.90
10129;DHT22;5104;50.720;7.044;2023-03-05T03:15:14;5.00;99.90
10129;DHT22;5104;50.720;7.044;2023-03-05T03:17:41;5.00;99.90
10129;DHT22;5104;50.720;7.044;2023-03-05T03:20:11;5.00;99.90
10129;DHT22;5104;50.720;7.044;2023-03-05T03:22:39;5.00;99.90
10129;DHT22;5104;50.720;7.044;2023-03-05T03:25:07;5.00;75.10
10129;DHT22;5104;50.720;7.044;2023-03-05T03:27:35;5.00;99.90
10129;DHT22;5104;50.720;7.044;2023-03-05T03:30:04;5.00;99.90
10129;DHT22;5104;50.720;7.044;2023-03-05T03:32:31;5.00;99.90
10129;DHT22;5104;50.720;7.044;2023-03-05T03:34:58;5.00;99.90
10129;DHT22;5104;50.720;7.044;2023-03-05T03:37:25;4.90;99.90
10129;DHT22;5104;50.720;7.044;2023-03-05T03:39:52;4.90;99.90
10129;DHT22;5104;50.720;7.044;2023-03-05T03:42:20;4.90;99.90
10129;DHT22;5104;50.720;7.044;2023-03-05T03:44:48;4.90;99.90
10129;DHT22;5104;50.720;7.044;2023-03-05T03:47:17;4.90;99.90
10129;DHT22;5104;50.720;7.044;2023-03-05T03:49:44;4.90;99.90
10129;DHT22;5104;50.720;7.044;2023-03-05T03:52:10;4.90;99.90
10129;DHT22;5104;50.720;7.044;2023-03-05T03:54:37;4.90;99.90
10129;DHT22;5104;50.720;7.044;2023-03-05T03:57:04;4.90;99.90
10129;DHT22;5104;50.720;7.044;2023-03-05T03:59:31;4.90;99.90
10129;DHT22;5104;50.720;7.044;2023-03-05T04:01:58;4.80;99.90
10129;DHT22;5104;50.720;7.044;2023-03-05T04:04:26;4.90;99.90
10129;DHT22;5104;50.720;7.044;2023-03-05T04:06:54;4.90;99.90
10129;DHT22;5104;50.720;7.044;2023-03-05T04:09:21;4.90;99.90
10129;DHT22;5104;50.720;7.044;2023-03-05T04:11:48;4.90;99.90
10129;DHT22;5104;50.720;7.044;2023-03-05T04:14:15;4.90;99.90
10129;DHT22;5104;50.720;7.044;2023-03-05T04:16:42;4.80;99.90
10129;DHT22;5104;50.720;7.044;2023-03-05T04:19:09;4.80;99.90
10129;DHT22;5104;50.720;7.044;2023-03-05T04:21:37;4.80;99.90
10129;DHT22;5104;50.720;7.044;2023-03-05T04:24:05;4.80;99.90
10129;DHT22;5104;50.720;7.044;2023-03-05T04:26:32;4.80;99.90
10129;DHT22;5104;50.720;7.044;2023-03-05T04:28:59;4.80;99.90
10129;DHT22;5104;50.720;7.044;2023-03-05T04:31:26;4.80;1.00
10129;DHT22;5104;50.720;7.044;2023-03-05T04:33:53;4.70;1.00
10129;DHT22;5104;50.720;7.044;2023-03-05T04:36:20;4.70;1.00
10129;DHT22;5104;50.720;7.044;2023-03-05T04:38:48;4.70;1.00
10129;DHT22;5104;50.720;7.044;2023-03-05T04:41:18;4.70;1.00
10129;DHT22;5104;50.720;7.044;2023-03-05T04:43:45;4.80;1.00
10129;DHT22;5104;50.720;7.044;2023-03-05T04:46:12;4.80;99.90
10129;DHT22;5104;50.720;7.044;2023-03-05T04:48:38;4.80;99.90
10129;DHT22;5104;50.720;7.044;2023-03-05T04:51:06;4.80;99.90
10129;DHT22;5104;50.720;7.044;2023-03-05T04:53:33;4.80;1.00
10129;DHT22;5104;50.720;7.044;2023-03-05T04:56:02;4.80;1.00
10129;DHT22;5104;50.720;7.044;2023-03-05T04:58:29;4.70;1.00
10129;DHT22;5104;50.720;7.044;2023-03-05T05:00:59;4.70;1.00
10129;DHT22;5104;50.720;7.044;2023-03-05T05:03:27;4.70;1.00
10129;DHT22;5104;50.720;7.044;2023-03-05T05:05:54;4.70;1.00
10129;DHT22;5104;50.720;7.044;2023-03-05T05:08:21;4.70;1.00
10129;DHT22;5104;50.720;7.044;2023-03-05T05:10:55;4.70;1.00
10129;DHT22;5104;50.720;7.044;2023-03-05T05:13:24;4.60;1.00
10129;DHT22;5104;50.720;7.044;2023-03-05T05:15:51;4.70;1.00
10129;DHT22;5104;50.720;7.044;2023-03-05T05:18:18;4.60;1.00
10129;DHT22;5104;50.720;7.044;2023-03-05T05:20:44;4.70;1.00
10129;DHT22;5104;50.720;7.044;2023-03-05T05:23:11;4.60;1.00
10129;DHT22;5104;50.720;7.044;2023-03-05T05:25:38;4.60;1.00
10129;DHT22;5104;50.720;7.044;2023-03-05T05:28:05;4.60;1.00
10129;DHT22;5104;50.720;7.044;2023-03-05T05:30:34;4.60;1.00
10129;DHT22;5104;50.720;7.044;2023-03-05T05:33:01;4.60;1.00
10129;DHT22;5104;50.720;7.044;2023-03-05T05:35:28;4.60;1.00
10129;DHT22;5104;50.720;7.044;2023-03-05T05:37:54;4.60;1.00
10129;DHT22;5104;50.720;7.044;2023-03-05T05:40:21;4.60;1.00
10129;DHT22;5104;50.720;7.044;2023-03-05T05:42:48;4.50;1.00
10129;DHT22;5104;50.720;7.044;2023-03-05T05:45:15;4.60;1.00
10129;DHT22;5104;50.720;7.044;2023-03-05T05:47:43;4.50;1.00
10129;DHT22;5104;50.720;7.044;2023-03-05T05:50:11;4.50;99.90
10129;DHT22;5104;50.720;7.044;2023-03-05T05:52:39;4.50;99.90
10129;DHT22;5104;50.720;7.044;2023-03-05T05:55:06;4.50;99.90
10129;DHT22;5104;50.720;7.044;2023-03-05T05:57:33;4.50;99.90
10129;DHT22;5104;50.720;7.044;2023-03-05T06:00:01;4.50;99.90
10129;DHT22;5104;50.720;7.044;2023-03-05T06:02:28;4.50;99.90
10129;DHT22;5104;50.720;7.044;2023-03-05T06:04:57;4.50;99.90
10129;DHT22;5104;50.720;7.044;2023-03-05T06:07:24;4.50;99.90
10129;DHT22;5104;50.720;7.044;2023-03-05T06:09:50;4.50;99.90
10129;DHT22;5104;50.720;7.044;2023-03-05T06:12:17;4.50;99.90
10129;DHT22;5104;50.720;7.044;2023-03-05T06:14:44;4.50;99.90
10129;DHT22;5104;50.720;7.044;2023-03-05T06:17:11;4.50;99.90
10129;DHT22;5104;50.720;7.044;2023-03-05T06:19:38;4.50;99.90
10129;DHT22;5104;50.720;7.044;2023-03-05T06:22:06;4.50;99.90
10129;DHT22;5104;50.720;7.044;2023-03-05T06:24:33;4.50;99.90
10129;DHT22;5104;50.720;7.044;2023-03-05T06:27:00;4.50;99.90
10129;DHT22;5104;50.720;7.044;2023-03-05T06:29:27;4.50;99.90
10129;DHT22;5104;50.720;7.044;2023-03-05T06:31:54;4.50;99.90
10129;DHT22;5104;50.720;7.044;2023-03-05T06:34:21;4.50;1.00
10129;DHT22;5104;50.720;7.044;2023-03-05T06:36:48;4.50;99.90
10129;DHT22;5104;50.720;7.044;2023-03-05T06:39:16;4.50;1.00
10129;DHT22;5104;50.720;7.044;2023-03-05T06:41:43;4.50;1.00
10129;DHT22;5104;50.720;7.044;2023-03-05T06:44:10;4.50;1.00
10129;DHT22;5104;50.720;7.044;2023-03-05T06:46:37;4.60;1.00
10129;DHT22;5104;50.720;7.044;2023-03-05T06:49:05;4.60;1.00
10129;DHT22;5104;50.720;7.044;2023-03-05T06:51:35;4.60;1.00
10129;DHT22;5104;50.720;7.044;2023-03-05T06:54:04;4.60;1.00
10129;DHT22;5104;50.720;7.044;2023-03-05T06:56:34;4.60;1.00
10129;DHT22;5104;50.720;7.044;2023-03-05T06:59:01;4.70;1.00
10129;DHT22;5104;50.720;7.044;2023-03-05T07:01:28;4.70;99.90
10129;DHT22;5104;50.720;7.044;2023-03-05T07:03:55;4.70;1.00
10129;DHT22;5104;50.720;7.044;2023-03-05T07:06:25;4.80;1.00
10129;DHT22;5104;50.720;7.044;2023-03-05T07:08:54;4.70;1.00
10129;DHT22;5104;50.720;7.044;2023-03-05T07:11:22;4.80;1.00
10129;DHT22;5104;50.720;7.044;2023-03-05T07:13:50;4.80;1.00
10129;DHT22;5104;50.720;7.044;2023-03-05T07:16:19;4.80;1.00
10129;DHT22;5104;50.720;7.044;2023-03-05T07:18:47;4.90;1.00
10129;DHT22;5104;50.720;7.044;2023-03-05T07:21:15;4.90;1.00
10129;DHT22;5104;50.720;7.044;2023-03-05T07:23:44;4.90;99.90
10129;DHT22;5104;50.720;7.044;2023-03-05T07:26:11;5.00;1.00
10129;DHT22;5104;50.720;7.044;2023-03-05T07:28:39;4.90;1.00
10129;DHT22;5104;50.720;7.044;2023-03-05T07:31:11;4.90;1.00
10129;DHT22;5104;50.720;7.044;2023-03-05T07:33:38;4.90;1.00
10129;DHT22;5104;50.720;7.044;2023-03-05T07:36:07;5.00;1.00
10129;DHT22;5104;50.720;7.044;2023-03-05T07:38:35;5.00;1.00
10129;DHT22;5104;50.720;7.044;2023-03-05T07:41:02;5.10;1.00
10129;DHT22;5104;50.720;7.044;2023-03-05T07:43:29;5.10;99.90
10129;DHT22;5104;50.720;7.044;2023-03-05T07:45:56;5.10;1.00
10129;DHT22;5104;50.720;7.044;2023-03-05T07:48:25;5.20;99.90
10129;DHT22;5104;50.720;7.044;2023-03-05T07:50:59;5.30;99.90
10129;DHT22;5104;50.720;7.044;2023-03-05T07:53:27;5.30;99.90
10129;DHT22;5104;50.720;7.044;2023-03-05T07:55:54;5.40;1.00
10129;DHT22;5104;50.720;7.044;2023-03-05T07:58:21;5.40;99.90
10129;DHT22;5104;50.720;7.044;2023-03-05T08:00:48;5.50;1.00
10129;DHT22;5104;50.720;7.044;2023-03-05T08:03:15;5.70;1.00
10129;DHT22;5104;50.720;7.044;2023-03-05T08:05:44;5.60;1.00
10129;DHT22;5104;50.720;7.044;2023-03-05T08:08:11;5.60;1.00
10129;DHT22;5104;50.720;7.044;2023-03-05T08:10:38;5.70;1.00
10129;DHT22;5104;50.720;7.044;2023-03-05T08:13:05;5.70;1.00
10129;DHT22;5104;50.720;7.044;2023-03-05T08:15:32;5.80;1.00
10129;DHT22;5104;50.720;7.044;2023-03-05T08:17:59;5.90;99.90
10129;DHT22;5104;50.720;7.044;2023-03-05T08:20:26;6.00;99.90
10129;DHT22;5104;50.720;7.044;2023-03-05T08:22:57;6.10;99.90
10129;DHT22;5104;50.720;7.044;2023-03-05T08:25:24;6.00;33.60
10129;DHT22;5104;50.720;7.044;2023-03-05T08:27:51;6.10;1.00
10129;DHT22;5104;50.720;7.044;2023-03-05T08:30:20;6.20;1.00
10129;DHT22;5104;50.720;7.044;2023-03-05T08:32:52;6.20;1.00
10129;DHT22;5104;50.720;7.044;2023-03-05T08:35:19;6.20;1.00
10129;DHT22;5104;50.720;7.044;2023-03-05T08:37:47;6.30;99.90
10129;DHT22;5104;50.720;7.044;2023-03-05T08:40:15;6.40;99.90
10129;DHT22;5104;50.720;7.044;2023-03-05T08:42:44;6.30;99.90
10129;DHT22;5104;50.720;7.044;2023-03-05T08:45:11;6.30;1.00
10129;DHT22;5104;50.720;7.044;2023-03-05T08:47:38;6.40;99.90
10129;DHT22;5104;50.720;7.044;2023-03-05T08:50:05;6.30;99.90
10129;DHT22;5104;50.720;7.044;2023-03-05T08:52:33;6.40;99.90
10129;DHT22;5104;50.720;7.044;2023-03-05T08:55:00;6.40;99.90
10129;DHT22;5104;50.720;7.044;2023-03-05T08:57:28;6.40;99.90
10129;DHT22;5104;50.720;7.044;2023-03-05T08:59:55;6.40;99.90
10129;DHT22;5104;50.720;7.044;2023-03-05T09:02:22;6.30;99.90
10129;DHT22;5104;50.720;7.044;2023-03-05T09:04:49;6.40;99.90
10129;DHT22;5104;50.720;7.044;2023-03-05T09:07:16;6.40;99.90
10129;DHT22;5104;50.720;7.044;2023-03-05T09:09:43;6.40;99.90
10129;DHT22;5104;50.720;7.044;2023-03-05T09:12:11;6.40;99.90
10129;DHT22;5104;50.720;7.044;2023-03-05T09:14:41;6.50;99.90
10129;DHT22;5104;50.720;7.044;2023-03-05T09:17:08;6.50;99.90
10129;DHT22;5104;50.720;7.044;2023-03-05T09:19:36;6.60;99.90
10129;DHT22;5104;50.720;7.044;2023-03-05T09:22:03;6.70;82.30
10129;DHT22;5104;50.720;7.044;2023-03-05T09:24:31;6.70;23.50
10129;DHT22;5104;50.720;7.044;2023-03-05T09:26:59;6.90;1.00
10129;DHT22;5104;50.720;7.044;2023-03-05T09:29:26;7.00;1.00
10129;DHT22;5104;50.720;7.044;2023-03-05T09:31:56;7.10;1.00
10129;DHT22;5104;50.720;7.044;2023-03-05T09:34:24;7.10;1.00
10129;DHT22;5104;50.720;7.044;2023-03-05T09:36:51;7.20;1.00
10129;DHT22;5104;50.720;7.044;2023-03-05T09:39:18;7.10;1.00
10129;DHT22;5104;50.720;7.044;2023-03-05T09:42:10;7.10;1.00
10129;DHT22;5104;50.720;7.044;2023-03-05T09:44:48;7.20;1.00
10129;DHT22;5104;50.720;7.044;2023-03-05T09:47:29;7.30;1.00
10129;DHT22;5104;50.720;7.044;2023-03-05T09:50:08;7.40;99.90
10129;DHT22;5104;50.720;7.044;2023-03-05T09:52:40;7.40;1.00
10129;DHT22;5104;50.720;7.044;2023-03-05T09:55:16;7.40;1.00
10129;DHT22;5104;50.720;7.044;2023-03-05T09:57:50;7.30;1.00
10129;DHT22;5104;50.720;7.044;2023-03-05T10:00:27;7.40;1.00
10129;DHT22;5104;50.720;7.044;2023-03-05T10:03:01;7.30;1.00
10129;DHT22;5104;50.720;7.044;2023-03-05T10:05:42;7.50;99.90
10129;DHT22;5104;50.720;7.044;2023-03-05T10:08:11;7.40;99.90
10129;DHT22;5104;50.720;7.044;2023-03-05T10:10:41;7.30;99.90
10129;DHT22;5104;50.720;7.044;2023-03-05T10:13:15;7.60;99.90
10129;DHT22;5104;50.720;7.044;2023-03-05T10:15:52;7.60;99.90
10129;DHT22;5104;50.720;7.044;2023-03-05T10:18:30;7.90;36.10
10129;DHT22;5104;50.720;7.044;2023-03-05T10:21:03;8.10;1.00
10129;DHT22;5104;50.720;7.044;2023-03-05T10:23:57;8.30;1.00
10129;DHT22;5104;50.720;7.044;2023-03-05T10:26:50;8.50;1.00
10129;DHT22;5104;50.720;7.044;2023-03-05T10:29:48;8.30;1.00
10129;DHT22;5104;50.720;7.044;2023-03-05T10:32:30;8.00;1.00
10129;DHT22;5104;50.720;7.044;2023-03-05T10:35:18;8.00;1.00
10129;DHT22;5104;50.720;7.044;2023-03-05T10:38:14;7.70;1.00
10129;DHT22;5104;50.720;7.044;2023-03-05T10:40:46;7.60;1.00
10129;DHT22;5104;50.720;7.044;2023-03-05T10:43:22;7.40;1.00
10129;DHT22;5104;50.720;7.044;2023-03-05T10:45:52;7.30;16.40
10129;DHT22;5104;50.720;7.044;2023-03-05T10:48:27;7.20;60.80
10129;DHT22;5104;50.720;7.044;2023-03-05T10:50:59;7.10;99.90
10129;DHT22;5104;50.720;7.044;2023-03-05T10:53:30;7.40;1.00
10129;DHT22;5104;50.720;7.044;2023-03-05T10:56:01;7.40;10.00
10129;DHT22;5104;50.720;7.044;2023-03-05T10:58:28;7.60;1.00
10129;DHT22;5104;50.720;7.044;2023-03-05T11:01:00;7.70;1.00
10129;DHT22;5104;50.720;7.044;2023-03-05T11:03:49;7.80;1.00
10129;DHT22;5104;50.720;7.044;2023-03-05T11:06:30;7.80;1.00
10129;DHT22;5104;50.720;7.044;2023-03-05T11:09:15;7.60;1.00
10129;DHT22;5104;50.720;7.044;2023-03-05T11:11:43;7.40;1.00
10129;DHT22;5104;50.720;7.044;2023-03-05T11:14:23;7.50;1.00
10129;DHT22;5104;50.720;7.044;2023-03-05T11:16:54;7.50;1.00
10129;DHT22;5104;50.720;7.044;2023-03-05T11:19:25;7.50;1.00
10129;DHT22;5104;50.720;7.044;2023-03-05T11:22:14;7.40;1.00
10129;DHT22;5104;50.720;7.044;2023-03-05T11:24:41;7.30;1.00
10129;DHT22;5104;50.720;7.044;2023-03-05T11:27:31;7.20;1.00
10129;DHT22;5104;50.720;7.044;2023-03-05T11:29:58;7.10;62.80
10129;DHT22;5104;50.720;7.044;2023-03-05T11:32:27;7.10;77.90
10129;DHT22;5104;50.720;7.044;2023-03-05T11:34:55;7.00;99.90
10129;DHT22;5104;50.720;7.044;2023-03-05T11:37:25;6.90;99.90
10129;DHT22;5104;50.720;7.044;2023-03-05T11:40:17;6.80;99.90
10129;DHT22;5104;50.720;7.044;2023-03-05T11:42:48;6.80;99.90
10129;DHT22;5104;50.720;7.044;2023-03-05T11:45:17;6.60;99.90
10129;DHT22;5104;50.720;7.044;2023-03-05T11:47:47;6.60;1.00
10129;DHT22;5104;50.720;7.044;2023-03-05T11:50:20;6.40;1.00
10129;DHT22;5104;50.720;7.044;2023-03-05T11:52:50;6.40;1.00
10129;DHT22;5104;50.720;7.044;2023-03-05T11:55:18;6.40;1.00
10129;DHT22;5104;50.720;7.044;2023-03-05T11:57:51;6.50;45.60
10129;DHT22;5104;50.720;7.044;2023-03-05T12:00:26;6.40;1.00
10129;DHT22;5104;50.720;7.044;2023-03-05T12:02:56;6.70;99.90
10129;DHT22;5104;50.720;7.044;2023-03-05T12:05:25;7.00;99.90
10129;DHT22;5104;50.720;7.044;2023-03-05T12:07:57;7.10;1.00
10129;DHT22;5104;50.720;7.044;2023-03-05T12:10:25;7.70;1.00
10129;DHT22;5104;50.720;7.044;2023-03-05T12:12:57;8.10;99.90
10129;DHT22;5104;50.720;7.044;2023-03-05T12:15:44;8.60;99.90
10129;DHT22;5104;50.720;7.044;2023-03-05T12:18:20;8.10;99.90
10129;DHT22;5104;50.720;7.044;2023-03-05T12:20:59;8.10;99.90
10129;DHT22;5104;50.720;7.044;2023-03-05T12:23:44;8.20;99.90
10129;DHT22;5104;50.720;7.044;2023-03-05T12:26:11;7.90;99.90
10129;DHT22;5104;50.720;7.044;2023-03-05T12:28:56;7.60;99.90
10129;DHT22;5104;50.720;7.044;2023-03-05T12:31:37;7.50;1.00
10129;DHT22;5104;50.720;7.044;2023-03-05T12:40:24;7.30;1.00
10129;DHT22;5104;50.720;7.044;2023-03-05T12:42:53;7.40;1.00
10129;DHT22;5104;50.720;7.044;2023-03-05T12:45:36;7.40;1.00
10129;DHT22;5104;50.720;7.044;2023-03-05T12:51:31;7.60;1.00
10129;DHT22;5104;50.720;7.044;2023-03-05T12:54:26;7.60;1.00
10129;DHT22;5104;50.720;7.044;2023-03-05T12:56:57;7.70;99.90
10129;DHT22;5104;50.720;7.044;2023-03-05T12:59:30;7.50;1.00
10129;DHT22;5104;50.720;7.044;2023-03-05T13:02:02;7.40;1.00
10129;DHT22;5104;50.720;7.044;2023-03-05T13:04:31;7.50;1.00
10129;DHT22;5104;50.720;7.044;2023-03-05T13:07:02;7.50;1.00
10129;DHT22;5104;50.720;7.044;2023-03-05T13:09:30;7.40;1.00
10129;DHT22;5104;50.720;7.044;2023-03-05T13:12:02;7.40;1.00
10129;DHT22;5104;50.720;7.044;2023-03-05T13:14:36;7.50;1.00
10129;DHT22;5104;50.720;7.044;2023-03-05T13:17:33;7.40;1.00
10129;DHT22;5104;50.720;7.044;2023-03-05T13:20:03;7.40;1.00
10129;DHT22;5104;50.720;7.044;2023-03-05T13:23:02;7.30;1.00
10129;DHT22;5104;50.720;7.044;2023-03-05T13:25:29;7.20;1.00
10129;DHT22;5104;50.720;7.044;2023-03-05T13:28:03;7.10;1.00
10129;DHT22;5104;50.720;7.044;2023-03-05T13:30:30;7.10;1.00
10129;DHT22;5104;50.720;7.044;2023-03-05T13:33:00;7.00;1.00
10129;DHT22;5104;50.720;7.044;2023-03-05T13:35:28;7.00;1.00
10129;DHT22;5104;50.720;7.044;2023-03-05T13:37:56;7.00;1.00
10129;DHT22;5104;50.720;7.044;2023-03-05T13:40:25;7.00;1.00
10129;DHT22;5104;50.720;7.044;2023-03-05T13:42:52;7.00;1.00
10129;DHT22;5104;50.720;7.044;2023-03-05T13:45:25;6.90;1.00
10129;DHT22;5104;50.720;7.044;2023-03-05T13:47:55;6.90;1.00
10129;DHT22;5104;50.720;7.044;2023-03-05T13:50:25;6.80;1.00
10129;DHT22;5104;50.720;7.044;2023-03-05T13:52:52;6.80;1.00
10129;DHT22;5104;50.720;7.044;2023-03-05T13:55:20;6.80;1.00
10129;DHT22;5104;50.720;7.044;2023-03-05T13:57:48;6.70;39.90
10129;DHT22;5104;50.720;7.044;2023-03-05T14:00:31;6.70;1.00
10129;DHT22;5104;50.720;7.044;2023-03-05T14:03:00;6.70;99.90
10129;DHT22;5104;50.720;7.044;2023-03-05T14:05:28;6.60;99.90
10129;DHT22;5104;50.720;7.044;2023-03-05T14:07:57;6.70;99.90
10129;DHT22;5104;50.720;7.044;2023-03-05T14:10:32;6.80;99.90
10129;DHT22;5104;50.720;7.044;2023-03-05T14:13:03;6.80;1.00
10129;DHT22;5104;50.720;7.044;2023-03-05T14:15:34;6.90;94.60
10129;DHT22;5104;50.720;7.044;2023-03-05T14:18:21;7.00;37.20
10129;DHT22;5104;50.720;7.044;2023-03-05T14:21:01;7.10;24.90
10129;DHT22;5104;50.720;7.044;2023-03-05T14:23:39;7.00;22.80
10129;DHT22;5104;50.720;7.044;2023-03-05T14:26:24;7.10;1.00
10129;DHT22;5104;50.720;7.044;2023-03-05T14:28:53;7.10;1.00
10129;DHT22;5104;50.720;7.044;2023-03-05T14:31:23;7.10;61.90
10129;DHT22;5104;50.720;7.044;2023-03-05T14:33:51;7.10;1.00
10129;DHT22;5104;50.720;7.044;2023-03-05T14:36:23;7.10;2.10
10129;DHT22;5104;50.720;7.044;2023-03-05T14:38:51;7.20;1.00
10129;DHT22;5104;50.720;7.044;2023-03-05T14:41:31;7.20;1.00
10129;DHT22;5104;50.720;7.044;2023-03-05T14:43:59;7.20;1.00
10129;DHT22;5104;50.720;7.044;2023-03-05T14:46:27;7.20;1.00
10129;DHT22;5104;50.720;7.044;2023-03-05T14:48:54;7.10;1.00
10129;DHT22;5104;50.720;7.044;2023-03-05T14:51:22;7.20;99.90
10129;DHT22;5104;50.720;7.044;2023-03-05T14:53:50;7.10;1.00
10129;DHT22;5104;50.720;7.044;2023-03-05T14:56:21;7.20;1.00
10129;DHT22;5104;50.720;7.044;2023-03-05T14:58:49;7.10;1.00
10129;DHT22;5104;50.720;7.044;2023-03-05T15:01:16;7.20;99.90
10129;DHT22;5104;50.720;7.044;2023-03-05T15:03:45;7.30;99.90
10129;DHT22;5104;50.720;7.044;2023-03-05T15:06:17;7.30;99.90
10129;DHT22;5104;50.720;7.044;2023-03-05T15:08:46;7.40;99.90
10129;DHT22;5104;50.720;7.044;2023-03-05T15:11:13;7.40;99.90
10129;DHT22;5104;50.720;7.044;2023-03-05T15:13:40;7.40;99.90
10129;DHT22;5104;50.720;7.044;2023-03-05T15:16:11;7.40;99.90
10129;DHT22;5104;50.720;7.044;2023-03-05T15:18:40;7.40;99.90
10129;DHT22;5104;50.720;7.044;2023-03-05T15:21:08;7.50;99.90
10129;DHT22;5104;50.720;7.044;2023-03-05T15:23:36;7.40;99.90
10129;DHT22;5104;50.720;7.044;2023-03-05T15:26:04;7.30;99.90
10129;DHT22;5104;50.720;7.044;2023-03-05T15:28:33;7.20;99.90
10129;DHT22;5104;50.720;7.044;2023-03-05T15:31:01;7.10;1.00
10129;DHT22;5104;50.720;7.044;2023-03-05T15:33:28;6.90;1.00
10129;DHT22;5104;50.720;7.044;2023-03-05T15:35:56;6.70;1.00
10129;DHT22;5104;50.720;7.044;2023-03-05T15:38:24;6.60;1.00
10129;DHT22;5104;50.720;7.044;2023-03-05T15:40:51;6.60;1.00
10129;DHT22;5104;50.720;7.044;2023-03-05T15:43:19;6.50;1.00
10129;DHT22;5104;50.720;7.044;2023-03-05T15:45:46;6.50;1.00
10129;DHT22;5104;50.720;7.044;2023-03-05T15:48:13;6.40;1.00
10129;DHT22;5104;50.720;7.044;2023-03-05T15:50:41;6.40;1.00
10129;DHT22;5104;50.720;7.044;2023-03-05T15:53:09;6.40;1.00
10129;DHT22;5104;50.720;7.044;2023-03-05T15:55:40;6.40;1.00
10129;DHT22;5104;50.720;7.044;2023-03-05T15:58:08;6.30;1.00
10129;DHT22;5104;50.720;7.044;2023-03-05T16:00:39;6.30;1.00
10129;DHT22;5104;50.720;7.044;2023-03-05T16:03:06;6.30;1.00
10129;DHT22;5104;50.720;7.044;2023-03-05T16:05:33;6.30;1.00
10129;DHT22;5104;50.720;7.044;2023-03-05T16:08:01;6.30;1.00
10129;DHT22;5104;50.720;7.044;2023-03-05T16:10:29;6.30;1.00
10129;DHT22;5104;50.720;7.044;2023-03-05T16:13:02;6.30;1.00
10129;DHT22;5104;50.720;7.044;2023-03-05T16:15:30;6.20;1.00
10129;DHT22;5104;50.720;7.044;2023-03-05T16:17:59;6.20;1.00
10129;DHT22;5104;50.720;7.044;2023-03-05T16:20:28;6.20;1.00
10129;DHT22;5104;50.720;7.044;2023-03-05T16:22:55;6.20;1.00
10129;DHT22;5104;50.720;7.044;2023-03-05T16:25:21;6.20;1.00
10129;DHT22;5104;50.720;7.044;2023-03-05T16:27:48;6.20;1.00
10129;DHT22;5104;50.720;7.044;2023-03-05T16:30:18;6.20;1.00
10129;DHT22;5104;50.720;7.044;2023-03-05T16:32:45;6.20;1.00
10129;DHT22;5104;50.720;7.044;2023-03-05T16:35:12;6.10;1.00
10129;DHT22;5104;50.720;7.044;2023-03-05T16:37:40;6.10;1.00